Time;durP1;ratioP1;P1;durP2;ratioP2;P2;SDS_P1;SDS_P2;PMS_P1;PMS_P2;Temp;Humidity;BMP_temperature;BMP_pressure;BME280_temperature;BME280_humidity;BME280_pressure;Samples;Min_cycle;Max_cycle;Signal;HPM_P1;HPM_P2
2022/03/30 00:01:34;;;;;;;7.60;2.67;;;3.90;35.80;;;;;;5073942;28;20707;-83
2022/03/30 00:04:02;;;;;;;12.90;3.20;;;4.00;32.60;;;;;;5073707;28;20192;-83
2022/03/30 00:06:29;;;;;;;11.37;3.13;;;4.00;33.80;;;;;;5073996;28;20219;-83
2022/03/30 00:08:56;;;;;;;9.67;2.90;;;4.00;35.00;;;;;;5073766;28;20223;-85
2022/03/30 00:11:23;;;;;;;12.00;2.90;;;4.00;36.40;;;;;;5073994;28;20176;-82
2022/03/30 00:13:50;;;;;;;8.40;2.83;;;4.00;38.70;;;;;;5074009;28;20270;-82
2022/03/30 00:16:19;;;;;;;7.20;2.67;;;4.00;64.50;;;;;;5073560;28;20657;-83
2022/03/30 00:18:46;;;;;;;9.97;2.90;;;4.00;45.30;;;;;;5073452;28;20541;-85
2022/03/30 00:21:13;;;;;;;10.03;2.90;;;4.00;47.50;;;;;;5073614;28;20192;-83
2022/03/30 00:23:40;;;;;;;14.03;2.83;;;3.90;49.80;;;;;;5073641;28;20292;-83
2022/03/30 00:26:07;;;;;;;8.87;3.00;;;4.00;56.00;;;;;;5074008;28;20274;-84
2022/03/30 00:28:34;;;;;;;10.97;3.00;;;3.90;61.40;;;;;;5073710;28;20220;-82
2022/03/30 00:31:01;;;;;;;10.17;3.73;;;3.90;65.50;;;;;;5072989;28;20238;-83
2022/03/30 00:33:30;;;;;;;11.17;3.40;;;3.90;71.40;;;;;;5073033;28;20199;-82
2022/03/30 00:35:57;;;;;;;9.27;3.20;;;3.90;80.00;;;;;;5073538;28;20744;-83
2022/03/30 00:38:25;;;;;;;8.20;3.07;;;3.80;82.50;;;;;;5073478;28;20209;-82
2022/03/30 00:40:52;;;;;;;9.17;4.00;;;3.80;88.50;;;;;;5073430;28;20196;-85
2022/03/30 00:43:19;;;;;;;9.03;3.13;;;3.80;91.80;;;;;;5073491;28;20197;-83
2022/03/30 00:45:47;;;;;;;12.83;3.50;;;3.80;94.90;;;;;;5073444;28;20263;-84
2022/03/30 00:48:14;;;;;;;13.50;2.90;;;3.80;97.80;;;;;;5073277;28;20299;-84
2022/03/30 00:50:42;;;;;;;10.13;3.17;;;3.80;99.90;;;;;;5073207;28;20598;-83
2022/03/30 00:53:09;;;;;;;8.57;2.90;;;3.70;99.90;;;;;;5073245;28;20698;-83
2022/03/30 00:55:36;;;;;;;11.07;3.43;;;3.70;99.90;;;;;;5073168;28;20239;-83
2022/03/30 00:58:07;;;;;;;12.70;3.67;;;3.70;99.90;;;;;;5073185;28;20195;-83
2022/03/30 01:00:34;;;;;;;11.23;3.63;;;3.70;99.90;;;;;;5072926;28;20195;-82
2022/03/30 01:03:01;;;;;;;13.47;3.37;;;3.70;99.90;;;;;;5072741;28;20241;-82
2022/03/30 01:05:28;;;;;;;11.03;3.23;;;3.70;99.90;;;;;;5073043;28;20203;-84
2022/03/30 01:07:59;;;;;;;9.30;3.53;;;3.70;99.90;;;;;;5072999;28;20192;-84
2022/03/30 01:10:26;;;;;;;8.87;3.10;;;3.70;99.90;;;;;;5072810;28;20323;-82
2022/03/30 01:12:54;;;;;;;9.87;3.20;;;3.60;99.90;;;;;;5072737;28;20198;-87
2022/03/30 01:15:22;;;;;;;9.27;2.93;;;3.60;99.90;;;;;;5072543;28;20229;-84
2022/03/30 01:17:49;;;;;;;13.60;4.17;;;3.60;99.90;;;;;;5073032;28;20203;-87
2022/03/30 01:20:21;;;;;;;12.73;4.00;;;3.60;99.90;;;;;;5072762;28;20249;-85
2022/03/30 01:22:50;;;;;;;8.43;3.27;;;3.60;99.90;;;;;;5072592;28;20633;-86
2022/03/30 01:25:19;;;;;;;10.13;3.53;;;3.60;99.90;;;;;;5072276;28;20230;-87
2022/03/30 01:27:46;;;;;;;12.23;3.40;;;3.50;99.90;;;;;;5058874;28;20279;-83
2022/03/30 01:33:02;;;;;;;8.87;3.50;;;3.60;99.90;;;;;;5072445;28;20249;-84
2022/03/30 01:35:29;;;;;;;10.80;3.50;;;3.50;99.90;;;;;;5072223;28;20651;-83
2022/03/30 01:37:58;;;;;;;9.17;3.43;;;3.50;99.90;;;;;;5071949;28;20204;-83
2022/03/30 01:40:25;;;;;;;11.33;3.93;;;3.50;99.90;;;;;;5072192;28;20653;-84
2022/03/30 01:42:52;;;;;;;10.10;3.40;;;3.50;99.90;;;;;;5072656;28;20200;-84
2022/03/30 01:45:19;;;;;;;9.20;2.97;;;3.50;99.90;;;;;;5071868;28;20200;-85
2022/03/30 01:47:51;;;;;;;10.90;3.00;;;3.50;99.90;;;;;;5072503;28;20229;-85
2022/03/30 01:50:18;;;;;;;8.63;2.73;;;3.50;99.90;;;;;;5072630;28;20226;-85
2022/03/30 01:52:46;;;;;;;9.30;2.80;;;3.50;99.90;;;;;;5072139;28;20305;-84
2022/03/30 01:55:15;;;;;;;7.80;3.43;;;3.50;99.90;;;;;;5072404;28;20279;-85
2022/03/30 01:57:42;;;;;;;13.53;3.37;;;3.40;99.90;;;;;;5072819;28;20641;-84
2022/03/30 02:00:10;;;;;;;12.43;2.93;;;3.40;99.90;;;;;;5072012;28;20717;-84
2022/03/30 02:02:38;;;;;;;13.07;3.73;;;3.40;99.90;;;;;;5072419;28;20191;-86
2022/03/30 02:05:08;;;;;;;6.93;3.23;;;3.40;99.90;;;;;;5071921;28;20529;-87
2022/03/30 02:07:35;;;;;;;16.53;3.67;;;3.30;99.90;;;;;;5072175;28;20195;-86
2022/03/30 02:10:03;;;;;;;9.43;3.10;;;3.30;99.90;;;;;;5072237;28;20639;-84
2022/03/30 02:12:32;;;;;;;13.77;4.47;;;3.20;99.90;;;;;;5071837;28;20717;-85
2022/03/30 02:14:59;;;;;;;13.97;3.83;;;3.20;99.90;;;;;;5072311;28;20192;-86
2022/03/30 02:17:27;;;;;;;11.83;3.43;;;3.20;99.90;;;;;;5072206;28;20765;-84
2022/03/30 02:19:54;;;;;;;9.60;3.23;;;3.20;99.90;;;;;;5072237;28;20191;-84
2022/03/30 02:22:22;;;;;;;9.37;3.23;;;3.10;99.90;;;;;;5072212;28;20279;-84
2022/03/30 02:24:49;;;;;;;14.50;3.70;;;3.10;99.90;;;;;;5071711;28;20282;-84
2022/03/30 02:27:18;;;;;;;10.73;3.80;;;3.00;99.90;;;;;;5072398;28;20279;-84
2022/03/30 02:29:47;;;;;;;11.83;3.70;;;3.00;99.90;;;;;;5071543;28;20265;-85
2022/03/30 02:32:14;;;;;;;13.73;5.43;;;3.00;99.90;;;;;;5071916;28;20184;-84
2022/03/30 02:34:42;;;;;;;17.73;6.47;;;3.00;99.90;;;;;;5072505;28;20200;-85
2022/03/30 02:37:09;;;;;;;10.03;4.10;;;3.00;99.90;;;;;;5072428;28;20282;-84
2022/03/30 02:39:46;;;;;;;10.83;3.20;;;2.90;99.90;;;;;;5074743;28;20242;-87
2022/03/30 02:58:37;;;;;;;9.83;3.80;;;2.70;99.90;;;;;;4857152;29;20208;-87
2022/03/30 03:01:04;;;;;;;10.80;3.60;;;2.70;99.90;;;;;;4996635;28;20216;-84
2022/03/30 03:03:31;;;;;;;11.63;4.90;;;2.60;99.90;;;;;;5045735;28;20197;-85
2022/03/30 03:06:00;;;;;;;14.73;3.63;;;2.60;99.90;;;;;;5055283;28;20200;-84
2022/03/30 03:08:27;;;;;;;8.67;3.60;;;2.60;99.90;;;;;;5055486;28;20289;-85
2022/03/30 03:10:54;;;;;;;15.37;3.97;;;2.50;99.90;;;;;;5055325;28;20224;-84
2022/03/30 03:13:22;;;;;;;13.73;4.80;;;2.50;99.90;;;;;;5055376;28;20224;-84
2022/03/30 03:15:49;;;;;;;10.43;4.97;;;2.50;99.90;;;;;;5054947;28;20239;-85
2022/03/30 03:18:16;;;;;;;8.47;3.87;;;2.40;99.90;;;;;;5055306;28;20242;-85
2022/03/30 03:20:44;;;;;;;11.83;4.00;;;2.40;99.90;;;;;;5055115;28;20192;-85
2022/03/30 03:23:13;;;;;;;13.20;4.23;;;2.40;99.90;;;;;;5055485;28;20188;-85
2022/03/30 03:25:41;;;;;;;15.63;4.20;;;2.40;99.90;;;;;;5055229;28;20192;-85
2022/03/30 03:28:09;;;;;;;15.07;4.47;;;2.30;99.90;;;;;;5054882;28;20227;-84
2022/03/30 03:30:36;;;;;;;13.33;6.13;;;2.30;99.90;;;;;;5065224;28;20254;-85
2022/03/30 03:33:04;;;;;;;13.97;5.20;;;2.20;99.90;;;;;;5074506;28;20191;-87
2022/03/30 03:35:31;;;;;;;11.00;4.50;;;2.20;99.90;;;;;;5074846;28;20253;-86
2022/03/30 03:37:58;;;;;;;16.20;4.13;;;2.20;99.90;;;;;;5074376;28;20191;-86
2022/03/30 03:40:30;;;;;;;11.13;3.60;;;2.20;99.90;;;;;;5074324;28;20196;-86
2022/03/30 03:42:58;;;;;;;11.97;4.00;;;2.20;99.90;;;;;;5074795;28;20184;-84
2022/03/30 03:45:25;;;;;;;12.53;3.90;;;2.10;99.90;;;;;;5074595;28;20188;-85
2022/03/30 03:47:53;;;;;;;9.77;3.83;;;2.20;99.90;;;;;;5074186;28;20188;-85
2022/03/30 03:50:20;;;;;;;10.93;3.60;;;2.20;99.90;;;;;;5074876;28;20220;-85
2022/03/30 03:52:48;;;;;;;12.90;3.47;;;2.20;99.90;;;;;;5074427;28;20199;-85
2022/03/30 03:55:15;;;;;;;11.23;3.03;;;2.20;99.90;;;;;;5074734;28;20192;-88
2022/03/30 03:57:44;;;;;;;11.97;3.30;;;2.30;99.90;;;;;;5073767;28;20196;-86
2022/03/30 04:00:13;;;;;;;11.30;3.43;;;2.30;99.90;;;;;;5074317;28;20188;-86
2022/03/30 04:02:40;;;;;;;8.00;2.90;;;2.30;99.90;;;;;;5074376;28;20194;-85
2022/03/30 04:05:09;;;;;;;9.57;3.60;;;2.30;99.90;;;;;;5074611;28;20208;-85
2022/03/30 04:07:37;;;;;;;8.40;3.20;;;2.40;99.90;;;;;;5066378;28;20637;-85
2022/03/30 04:12:59;;;;;;;10.87;3.50;;;2.40;99.90;;;;;;5051608;28;20215;-85
2022/03/30 04:15:26;;;;;;;15.10;3.80;;;2.40;99.90;;;;;;5053916;28;20528;-87
2022/03/30 04:17:54;;;;;;;12.73;4.40;;;2.40;99.90;;;;;;5053669;28;20192;-86
2022/03/30 04:20:21;;;;;;;11.80;3.90;;;2.50;99.90;;;;;;5053720;28;20531;-85
2022/03/30 04:22:48;;;;;;;16.30;4.17;;;2.40;99.90;;;;;;5053970;28;20207;-87
2022/03/30 04:25:15;;;;;;;15.17;4.07;;;2.40;99.90;;;;;;5053669;28;20192;-85
2022/03/30 04:27:46;;;;;;;9.53;3.57;;;2.40;99.90;;;;;;5054334;28;20254;-85
2022/03/30 04:30:15;;;;;;;14.00;4.37;;;2.50;99.90;;;;;;5062896;28;20295;-86
2022/03/30 04:32:42;;;;;;;11.37;3.97;;;2.50;99.90;;;;;;5074017;28;20235;-85
2022/03/30 04:35:11;;;;;;;11.03;3.50;;;2.50;99.90;;;;;;5073813;28;20237;-85
2022/03/30 04:37:39;;;;;;;9.27;3.70;;;2.50;99.90;;;;;;5074083;28;20196;-85
2022/03/30 04:40:07;;;;;;;11.07;4.37;;;2.50;99.90;;;;;;5073221;28;20595;-85
2022/03/30 04:42:34;;;;;;;15.90;4.20;;;2.60;99.90;;;;;;5073741;28;20195;-86
2022/03/30 04:45:01;;;;;;;12.43;4.10;;;2.60;1.00;;;;;;5069913;28;20188;-86
2022/03/30 04:47:31;;;;;;;11.17;4.60;;;2.60;1.00;;;;;;5062042;28;20206;-86
2022/03/30 04:49:58;;;;;;;13.90;4.77;;;2.60;1.00;;;;;;5053389;28;20212;-86
2022/03/30 04:52:25;;;;;;;14.03;5.77;;;2.60;1.00;;;;;;5059579;28;20211;-83
2022/03/30 04:54:53;;;;;;;17.27;6.87;;;2.70;1.00;;;;;;5074139;28;20196;-85
2022/03/30 04:57:20;;;;;;;20.03;7.37;;;2.70;1.00;;;;;;5074485;28;20279;-86
2022/03/30 04:59:47;;;;;;;44.43;15.30;;;2.70;1.00;;;;;;5077231;28;20559;-88
2022/03/30 05:02:14;;;;;;;17.83;6.73;;;2.70;1.00;;;;;;5075282;28;20199;-83
2022/03/30 05:04:43;;;;;;;17.30;6.80;;;2.70;1.00;;;;;;5077550;28;20199;-86
2022/03/30 05:07:10;;;;;;;20.13;7.47;;;2.80;1.00;;;;;;5075969;28;20215;-84
2022/03/30 05:09:37;;;;;;;16.90;6.53;;;2.80;1.00;;;;;;5064837;28;20577;-85
2022/03/30 05:12:05;;;;;;;28.40;9.23;;;2.90;1.00;;;;;;5054904;28;20204;-85
2022/03/30 05:14:32;;;;;;;37.17;11.97;;;2.90;1.00;;;;;;5054986;28;20242;-84
2022/03/30 05:17:00;;;;;;;37.00;12.63;;;3.00;1.00;;;;;;5074925;28;20195;-86
2022/03/30 05:19:27;;;;;;;71.70;22.20;;;3.00;1.00;;;;;;5073061;28;20199;-85
2022/03/30 05:21:55;;;;;;;36.27;10.17;;;3.10;1.00;;;;;;5071976;28;20599;-84
2022/03/30 05:24:22;;;;;;;49.63;15.33;;;3.20;1.00;;;;;;5076353;28;20245;-87
2022/03/30 05:26:50;;;;;;;84.30;24.50;;;3.30;1.00;;;;;;5074382;28;20199;-85
2022/03/30 05:29:20;;;;;;;98.27;25.47;;;3.40;1.00;;;;;;5078634;28;20275;-86
2022/03/30 05:31:55;;;;;;;61.17;16.40;;;3.60;1.00;;;;;;5073667;28;20203;-88
2022/03/30 05:34:22;;;;;;;34.43;10.37;;;3.70;1.00;;;;;;5078564;28;20180;-84
2022/03/30 05:36:49;;;;;;;25.73;8.90;;;4.00;1.00;;;;;;5054823;28;20197;-84
2022/03/30 05:39:18;;;;;;;18.90;7.10;;;4.20;1.00;;;;;;5073678;28;20202;-86
2022/03/30 05:41:45;;;;;;;16.37;6.77;;;4.40;1.00;;;;;;5078866;28;20263;-85
2022/03/30 05:44:17;;;;;;;26.07;9.20;;;4.60;1.00;;;;;;5073656;28;20712;-88
2022/03/30 05:46:44;;;;;;;48.20;11.60;;;4.70;1.00;;;;;;5075192;28;20203;-86
2022/03/30 05:49:14;;;;;;;25.37;7.87;;;4.90;1.00;;;;;;5076523;28;20196;-85
2022/03/30 05:51:42;;;;;;;21.20;7.30;;;5.10;1.00;;;;;;5078682;28;20215;-86
2022/03/30 05:54:09;;;;;;;27.67;10.27;;;5.30;1.00;;;;;;5076185;28;20192;-86
2022/03/30 05:59:22;;;;;;;15.27;6.27;;;5.70;1.00;;;;;;5078132;28;20219;-87
2022/03/30 06:01:49;;;;;;;17.87;6.27;;;6.10;1.00;;;;;;5078917;28;20228;-90
2022/03/30 06:04:16;;;;;;;16.57;9.80;;;6.50;1.00;;;;;;5072996;28;20199;-87
2022/03/30 06:06:43;;;;;;;25.60;13.60;;;7.10;1.00;;;;;;5074036;28;20199;-89
2022/03/30 06:09:11;;;;;;;20.97;10.80;;;7.70;1.00;;;;;;5075275;28;20236;-87
2022/03/30 06:11:39;;;;;;;13.70;8.00;;;8.50;1.00;;;;;;5074835;28;20193;-88
2022/03/30 06:14:06;;;;;;;15.70;7.57;;;9.20;99.90;;;;;;5073668;28;20194;-87
2022/03/30 06:16:33;;;;;;;14.17;6.63;;;9.70;99.90;;;;;;5074671;28;20614;-88
2022/03/30 06:19:01;;;;;;;16.50;6.57;;;10.10;99.90;;;;;;5064003;28;20169;-87
2022/03/30 06:21:29;;;;;;;20.40;6.80;;;10.50;99.90;;;;;;5073004;28;20197;-88
2022/03/30 06:24:01;;;;;;;15.70;5.67;;;10.70;1.00;;;;;;5078257;28;20199;-89
2022/03/30 06:26:29;;;;;;;18.50;8.37;;;10.90;1.00;;;;;;5072519;28;20194;-87
2022/03/30 06:28:57;;;;;;;32.07;17.10;;;11.30;1.00;;;;;;5080439;28;20174;-88
2022/03/30 06:31:24;;;;;;;12.03;5.07;;;11.70;1.00;;;;;;5079459;28;20269;-88
2022/03/30 06:33:51;;;;;;;9.50;3.80;;;12.10;1.00;;;;;;5077676;28;20113;-87
2022/03/30 06:36:18;;;;;;;7.73;3.60;;;12.50;1.00;;;;;;5076179;28;20190;-88
2022/03/30 06:39:06;;;;;;;9.50;3.13;;;13.00;1.00;;;;;;5061147;28;20211;-88
2022/03/30 06:41:33;;;;;;;8.07;2.90;;;13.40;1.00;;;;;;5068118;28;20246;-88
2022/03/30 06:44:01;;;;;;;;;;;13.40;1.00;;;;;;5082561;28;20134;-88
2022/03/30 06:46:32;;;;;;;;;;;13.60;1.00;;;;;;5080329;28;20365;-89
2022/03/30 06:48:58;;;;;;;;;;;13.70;1.00;;;;;;5078469;28;20454;-89
2022/03/30 06:51:25;;;;;;;8.77;2.97;;;13.90;1.00;;;;;;5061451;28;20650;-86
2022/03/30 06:53:52;;;;;;;7.30;2.75;;;14.10;1.00;;;;;;5058455;28;20250;-87
2022/03/30 06:56:20;;;;;;;5.55;2.30;;;14.50;1.00;;;;;;5066177;28;20197;-87
2022/03/30 06:58:47;;;;;;;5.45;2.22;;;14.80;1.00;;;;;;5071168;28;20196;-86
2022/03/30 07:01:16;;;;;;;5.88;2.88;;;15.30;1.00;;;;;;5058349;28;20181;-86
2022/03/30 07:03:43;;;;;;;5.82;2.78;;;15.40;1.00;;;;;;5076749;28;20193;-86
2022/03/30 07:06:10;;;;;;;5.43;2.75;;;15.20;1.00;;;;;;5076490;28;20261;-86
2022/03/30 07:11:22;;;;;;;8.82;2.30;;;15.60;1.00;;;;;;5057203;28;20203;-88
2022/03/30 07:13:49;;;;;;;5.15;2.40;;;15.50;1.00;;;;;;5058116;28;20210;-85
2022/03/30 07:16:18;;;;;;;4.32;2.30;;;15.40;1.00;;;;;;5056258;28;20552;-87
2022/03/30 07:18:45;;;;;;;6.25;2.53;;;15.30;1.00;;;;;;5060819;28;20197;-86
2022/03/30 07:21:15;;;;;;;10.82;3.03;;;15.20;1.00;;;;;;5066387;28;20602;-91
2022/03/30 07:23:42;;;;;;;7.82;2.78;;;15.30;1.00;;;;;;5071305;28;20177;-86
2022/03/30 07:26:10;;;;;;;7.03;2.28;;;15.70;1.00;;;;;;5077927;28;20192;-87
2022/03/30 07:28:46;;;;;;;6.00;2.03;;;15.70;1.00;;;;;;5070080;28;20232;-85
2022/03/30 07:31:13;;;;;;;6.97;2.10;;;15.80;1.00;;;;;;5057068;28;20208;-87
2022/03/30 07:33:41;;;;;;;8.43;2.20;;;15.70;1.00;;;;;;5069199;28;20223;-86
2022/03/30 07:36:09;;;;;;;9.30;4.95;;;15.60;1.00;;;;;;5073298;28;20200;-88
2022/03/30 07:38:36;;;;;;;5.78;3.13;;;15.50;1.00;;;;;;5058100;28;20204;-86
2022/03/30 07:41:03;;;;;;;7.15;2.40;;;15.50;1.00;;;;;;5057262;28;20213;-85
2022/03/30 07:43:30;;;;;;;5.20;2.05;;;15.60;1.00;;;;;;5057247;28;20199;-85
2022/03/30 07:45:58;;;;;;;4.88;2.28;;;15.80;1.00;;;;;;5057057;28;20196;-84
2022/03/30 07:48:25;;;;;;;5.72;2.50;;;16.00;1.00;;;;;;5056642;28;20275;-86
2022/03/30 07:50:54;;;;;;;4.07;1.95;;;16.50;1.00;;;;;;5054956;28;20247;-86
2022/03/30 07:53:29;;;;;;;5.57;2.65;;;17.00;1.00;;;;;;5057415;28;20197;-87
2022/03/30 07:55:56;;;;;;;6.80;2.70;;;17.00;1.00;;;;;;5056545;28;20189;-86
2022/03/30 07:58:23;;;;;;;6.70;2.83;;;17.20;1.00;;;;;;5058066;28;20236;-86
2022/03/30 08:00:50;;;;;;;9.35;6.35;;;17.60;1.00;;;;;;5056759;28;20205;-87
2022/03/30 08:03:17;;;;;;;5.45;2.53;;;17.80;1.00;;;;;;5054389;28;20270;-86
2022/03/30 08:05:48;;;;;;;6.60;2.45;;;17.90;1.00;;;;;;5056968;28;20193;-87
2022/03/30 08:08:16;;;;;;;4.70;2.50;;;18.00;1.00;;;;;;5054939;28;20182;-87
2022/03/30 08:10:44;;;;;;;6.65;2.50;;;18.10;1.00;;;;;;5055063;28;20227;-84
2022/03/30 08:13:12;;;;;;;5.93;2.50;;;18.40;1.00;;;;;;5063426;28;20188;-85
2022/03/30 08:15:39;;;;;;;;;;;18.70;1.00;;;;;;5062735;28;20159;-85
2022/03/30 08:18:08;;;;;;;4.00;1.90;;;18.70;1.00;;;;;;5067788;28;20278;-88
2022/03/30 08:23:24;;;;;;;2.90;1.92;;;18.80;1.00;;;;;;5054173;28;20200;-84
2022/03/30 08:25:52;;;;;;;3.63;1.80;;;19.10;1.00;;;;;;5057555;28;20200;-86
2022/03/30 08:28:19;;;;;;;2.83;1.60;;;19.10;1.00;;;;;;5057223;28;20185;-86
2022/03/30 08:30:48;;;;;;;3.83;1.75;;;18.80;1.00;;;;;;5058002;28;20220;-87
2022/03/30 08:33:18;;;;;;;7.85;3.17;;;18.50;1.00;;;;;;5069420;28;20200;-85
2022/03/30 08:35:47;;;;;;;3.95;1.70;;;18.20;1.00;;;;;;5075000;28;20185;-87
2022/03/30 08:38:14;;;;;;;3.95;1.75;;;18.20;1.00;;;;;;5057895;28;20262;-85
2022/03/30 08:40:43;;;;;;;3.90;2.00;;;18.10;1.00;;;;;;5074523;28;20197;-85
2022/03/30 08:43:10;;;;;;;3.85;1.98;;;17.80;1.00;;;;;;5074558;28;20681;-85
2022/03/30 08:45:37;;;;;;;3.17;1.73;;;18.00;1.00;;;;;;5077413;28;20625;-85
2022/03/30 08:48:08;;;;;;;3.38;1.70;;;18.20;1.00;;;;;;5079999;28;20196;-87
2022/03/30 08:50:35;;;;;;;9.93;3.17;;;18.40;1.00;;;;;;5076818;28;20652;-87
2022/03/30 08:53:05;;;;;;;6.97;3.10;;;18.40;1.00;;;;;;5066706;28;20665;-84
2022/03/30 08:55:33;;;;;;;17.33;7.63;;;18.70;1.00;;;;;;5053124;28;20274;-84
2022/03/30 08:58:01;;;;;;;7.65;4.38;;;19.10;1.00;;;;;;5055506;28;20350;-86
2022/03/30 09:00:30;;;;;;;3.90;2.53;;;19.60;1.00;;;;;;5056439;28;20192;-86
2022/03/30 09:03:00;;;;;;;4.90;2.00;;;19.90;1.00;;;;;;5055806;28;20553;-88
2022/03/30 09:05:28;;;;;;;7.97;3.53;;;20.30;1.00;;;;;;5055755;28;20199;-84
2022/03/30 09:08:13;;;;;;;5.05;1.85;;;20.60;1.00;;;;;;5057268;28;20197;-88
2022/03/30 09:10:42;;;;;;;4.07;2.15;;;20.80;1.00;;;;;;5054553;28;20290;-84
2022/03/30 09:13:14;;;;;;;8.57;2.80;;;20.70;1.00;;;;;;5053282;28;20199;-85
2022/03/30 09:15:42;;;;;;;3.70;1.92;;;20.90;1.00;;;;;;5053018;28;20717;-86
2022/03/30 09:18:10;;;;;;;4.35;2.50;;;21.10;1.00;;;;;;5053505;28;20196;-86
2022/03/30 09:20:39;;;;;;;5.53;3.22;;;21.40;1.00;;;;;;5054573;28;20200;-86
2022/03/30 09:23:08;;;;;;;3.60;1.50;;;21.60;1.00;;;;;;5054909;28;20193;-85
2022/03/30 09:25:35;;;;;;;3.58;1.48;;;21.30;1.00;;;;;;5056340;28;20279;-86
2022/03/30 09:28:03;;;;;;;5.32;2.75;;;21.00;1.00;;;;;;5055981;28;20216;-85
2022/03/30 09:30:32;;;;;;;3.60;1.92;;;20.70;1.00;;;;;;5051828;28;20201;-85
2022/03/30 09:33:01;;;;;;;4.68;2.35;;;20.70;1.00;;;;;;5053270;28;20723;-86
2022/03/30 09:35:30;;;;;;;3.10;2.38;;;20.40;1.00;;;;;;5080128;28;20196;-84
2022/03/30 09:38:06;;;;;;;5.32;2.67;;;20.30;1.00;;;;;;5078941;28;20196;-85
2022/03/30 09:40:42;;;;;;;5.05;3.28;;;20.40;1.00;;;;;;5078901;28;20566;-85
2022/03/30 09:43:18;;;;;;;4.63;1.88;;;20.50;1.00;;;;;;5078488;28;20613;-85
2022/03/30 09:45:48;;;;;;;3.67;1.50;;;20.60;1.00;;;;;;5080897;28;20629;-87
2022/03/30 09:48:19;;;;;;;4.05;1.48;;;20.50;1.00;;;;;;5077647;28;20189;-83
2022/03/30 09:50:48;;;;;;;4.80;2.60;;;20.40;1.00;;;;;;5072787;28;20184;-83
2022/03/30 09:53:18;;;;;;;2.90;1.40;;;20.20;1.00;;;;;;5076069;28;20188;-83
2022/03/30 09:55:56;;;;;;;3.40;1.77;;;19.80;1.00;;;;;;5076539;28;20234;-83
2022/03/30 09:58:25;;;;;;;3.85;1.92;;;19.30;1.00;;;;;;5075558;28;20181;-82
2022/03/30 10:01:21;;;;;;;5.88;2.10;;;18.90;1.00;;;;;;5074192;28;20258;-83
2022/03/30 10:03:51;;;;;;;3.40;1.25;;;18.60;1.00;;;;;;5048844;28;20602;-82
2022/03/30 10:06:20;;;;;;;4.18;1.90;;;18.20;1.00;;;;;;5072999;28;20556;-83
2022/03/30 10:08:49;;;;;;;0.85;0.60;;;17.90;1.00;;;;;;5076288;28;20200;-83
2022/03/30 10:11:17;;;;;;;2.35;1.02;;;17.50;1.00;;;;;;5076073;28;20303;-84
2022/03/30 10:13:46;;;;;;;2.03;0.80;;;17.10;1.00;;;;;;5081782;28;20244;-83
2022/03/30 10:16:14;;;;;;;4.43;0.90;;;16.70;1.00;;;;;;5076353;28;20220;-82
2022/03/30 10:18:43;;;;;;;1.88;0.90;;;16.60;1.00;;;;;;5079094;28;20197;-87
2022/03/30 10:21:22;;;;;;;2.73;1.10;;;16.60;1.00;;;;;;5077898;28;20205;-82
2022/03/30 10:24:18;;;;;;;1.33;1.00;;;16.30;1.00;;;;;;5076873;28;20270;-83
2022/03/30 10:26:55;;;;;;;1.40;0.77;;;15.90;1.00;;;;;;5070767;28;20541;-84
2022/03/30 10:29:28;;;;;;;2.20;0.90;;;15.60;1.00;;;;;;5085027;28;20209;-85
2022/03/30 10:32:15;;;;;;;1.60;0.80;;;15.10;1.00;;;;;;5077758;28;20296;-83
2022/03/30 10:34:59;;;;;;;2.60;1.00;;;14.80;1.00;;;;;;5076806;28;20186;-89
2022/03/30 10:37:28;;;;;;;1.70;0.73;;;14.70;1.00;;;;;;5066001;28;20192;-83
2022/03/30 10:40:08;;;;;;;1.83;1.00;;;14.60;1.00;;;;;;5058145;28;20570;-84
2022/03/30 10:43:01;;;;;;;2.17;0.90;;;14.50;1.00;;;;;;5059048;28;20760;-82
2022/03/30 10:45:35;;;;;;;4.40;1.37;;;14.50;1.00;;;;;;5058293;28;20584;-85
2022/03/30 10:48:13;;;;;;;2.03;1.43;;;14.50;1.00;;;;;;5059891;28;20194;-86
2022/03/30 10:50:44;;;;;;;1.17;0.60;;;14.60;1.00;;;;;;5058545;28;20601;-85
2022/03/30 10:53:41;;;;;;;1.97;1.00;;;14.60;1.00;;;;;;5055393;28;20214;-83
2022/03/30 10:56:29;;;;;;;3.10;1.20;;;14.50;1.00;;;;;;5058296;28;20202;-83
2022/03/30 10:59:14;;;;;;;3.70;1.27;;;14.30;1.00;;;;;;5061368;28;20183;-84
2022/03/30 11:01:42;;;;;;;2.17;1.43;;;14.30;1.00;;;;;;5061173;28;20289;-83
2022/03/30 11:04:30;;;;;;;1.27;0.60;;;14.40;1.00;;;;;;5058620;28;20248;-85
2022/03/30 11:07:39;;;;;;;1.10;0.77;;;14.40;1.00;;;;;;5055419;28;20199;-83
2022/03/30 11:10:29;;;;;;;1.00;0.50;;;14.10;1.00;;;;;;5056239;28;20703;-84
2022/03/30 11:13:08;;;;;;;1.13;0.70;;;13.70;1.00;;;;;;5058447;28;20221;-84
2022/03/30 11:16:07;;;;;;;2.10;1.00;;;13.80;1.00;;;;;;5064162;28;20258;-84
2022/03/30 11:18:36;;;;;;;1.03;0.60;;;14.00;1.00;;;;;;5059582;28;20218;-83
2022/03/30 11:21:17;;;;;;;2.63;0.90;;;14.20;1.00;;;;;;5066904;28;20254;-84
2022/03/30 11:24:11;;;;;;;1.93;0.90;;;14.10;1.00;;;;;;5073951;28;20250;-83
2022/03/30 11:27:20;;;;;;;8.07;3.87;;;14.10;1.00;;;;;;5076485;28;20221;-84
2022/03/30 11:30:09;;;;;;;10.10;5.43;;;14.00;1.00;;;;;;5075001;28;20250;-85
2022/03/30 11:32:41;;;;;;;1.93;1.40;;;14.20;1.00;;;;;;5076467;28;20292;-83
2022/03/30 11:35:13;;;;;;;2.93;1.97;;;14.40;1.00;;;;;;5076207;28;20182;-84
2022/03/30 11:37:43;;;;;;;1.67;1.00;;;14.40;1.00;;;;;;5075096;28;20193;-83
2022/03/30 11:40:13;;;;;;;8.80;7.50;;;14.50;1.00;;;;;;5075155;28;20201;-82
2022/03/30 11:42:42;;;;;;;1.40;1.10;;;14.60;1.00;;;;;;5076695;28;20294;-84
2022/03/30 11:45:15;;;;;;;1.60;0.83;;;14.80;1.00;;;;;;5075385;28;20194;-85
2022/03/30 11:47:44;;;;;;;1.33;0.60;;;14.90;1.00;;;;;;5076166;28;20183;-83
2022/03/30 11:50:13;;;;;;;1.00;0.70;;;15.00;1.00;;;;;;5060078;28;20725;-83
2022/03/30 11:52:41;;;;;;;1.10;1.00;;;15.00;1.00;;;;;;5056483;28;20246;-85
2022/03/30 11:55:08;;;;;;;1.70;0.90;;;15.00;1.00;;;;;;5054034;28;20656;-84
2022/03/30 11:57:43;;;;;;;1.37;1.00;;;15.00;1.00;;;;;;5055667;28;20233;-83
2022/03/30 12:00:13;;;;;;;1.47;0.87;;;15.00;1.00;;;;;;5058873;28;20200;-83
2022/03/30 12:02:43;;;;;;;1.53;0.63;;;15.00;1.00;;;;;;5060698;28;20187;-86
2022/03/30 12:05:10;;;;;;;2.60;0.70;;;15.00;1.00;;;;;;5057461;28;20195;-84
2022/03/30 12:07:39;;;;;;;1.60;0.80;;;15.10;1.00;;;;;;5059382;28;20192;-83
2022/03/30 12:10:12;;;;;;;2.63;0.70;;;15.20;1.00;;;;;;5053858;28;20228;-84
2022/03/30 12:12:41;;;;;;;0.57;0.57;;;15.40;1.00;;;;;;5058788;28;20210;-85
2022/03/30 12:15:12;;;;;;;1.17;0.80;;;15.30;1.00;;;;;;5074572;28;20191;-83
2022/03/30 12:17:40;;;;;;;1.03;0.70;;;15.10;1.00;;;;;;5061356;28;20258;-83
2022/03/30 12:20:09;;;;;;;2.90;0.80;;;14.80;1.00;;;;;;5076389;28;20206;-83
2022/03/30 12:22:37;;;;;;;1.27;0.80;;;14.70;1.00;;;;;;5069105;28;20238;-83
2022/03/30 12:25:17;;;;;;;2.10;0.97;;;14.80;1.00;;;;;;5056394;28;20211;-84
2022/03/30 12:27:44;;;;;;;1.27;0.60;;;14.70;1.00;;;;;;5060206;28;20662;-82
2022/03/30 12:30:13;;;;;;;1.30;0.60;;;14.50;1.00;;;;;;5074727;28;20184;-83
2022/03/30 12:32:40;;;;;;;2.83;1.10;;;14.40;1.00;;;;;;5076915;28;20632;-83
2022/03/30 12:35:12;;;;;;;2.30;1.70;;;14.30;1.00;;;;;;5075550;28;20192;-83
2022/03/30 12:37:43;;;;;;;1.07;0.80;;;14.40;1.00;;;;;;5079050;28;20212;-84
2022/03/30 12:40:12;;;;;;;1.60;0.70;;;14.40;1.00;;;;;;5075852;28;20582;-83
2022/03/30 12:42:48;;;;;;;1.63;1.00;;;14.30;1.00;;;;;;5056946;28;20209;-83
2022/03/30 12:45:18;;;;;;;3.80;1.47;;;14.20;1.00;;;;;;5053509;28;20182;-82
2022/03/30 12:47:51;;;;;;;1.60;1.00;;;14.20;1.00;;;;;;5055720;28;20187;-83
2022/03/30 12:50:23;;;;;;;2.30;1.20;;;14.30;1.00;;;;;;5054775;28;20547;-84
2022/03/30 12:53:04;;;;;;;3.20;0.70;;;14.40;1.00;;;;;;5061604;28;20211;-83
2022/03/30 12:55:34;;;;;;;1.10;0.70;;;14.30;1.00;;;;;;5072014;28;20180;-82
2022/03/30 12:58:07;;;;;;;2.03;1.00;;;14.30;1.00;;;;;;5075532;28;20203;-84
2022/03/30 13:00:38;;;;;;;4.33;1.43;;;14.30;1.00;;;;;;5077998;28;20629;-83
2022/03/30 13:03:11;;;;;;;3.50;1.87;;;14.30;1.00;;;;;;5077061;28;20248;-87
2022/03/30 13:05:40;;;;;;;1.57;0.80;;;14.30;1.00;;;;;;5076615;28;20183;-82
2022/03/30 13:08:18;;;;;;;2.73;0.77;;;14.30;1.00;;;;;;5081685;28;20205;-83
2022/03/30 13:10:51;;;;;;;2.60;0.80;;;14.00;1.00;;;;;;5065225;28;20226;-82
2022/03/30 13:13:23;;;;;;;2.10;0.90;;;13.70;1.00;;;;;;5060892;28;20599;-84
2022/03/30 13:15:52;;;;;;;2.37;1.00;;;13.60;1.00;;;;;;5057015;28;20189;-83
2022/03/30 13:18:21;;;;;;;1.53;0.80;;;13.40;1.00;;;;;;5056811;28;20231;-84
2022/03/30 13:20:57;;;;;;;1.07;0.70;;;13.30;1.00;;;;;;5057233;28;20205;-83
2022/03/30 13:23:35;;;;;;;1.03;0.60;;;13.00;1.00;;;;;;5057806;28;20198;-82
2022/03/30 13:26:27;;;;;;;4.70;1.10;;;12.90;1.00;;;;;;5081515;28;20633;-87
2022/03/30 13:28:55;;;;;;;3.67;1.10;;;12.90;1.00;;;;;;5077024;28;20191;-84
2022/03/30 13:31:26;;;;;;;1.93;1.03;;;12.80;1.00;;;;;;5065818;28;20199;-85
2022/03/30 13:33:54;;;;;;;2.17;1.20;;;12.80;1.00;;;;;;5064958;28;20242;-83
2022/03/30 13:36:22;;;;;;;3.23;1.50;;;12.70;1.00;;;;;;5058304;28;20198;-83
2022/03/30 13:38:51;;;;;;;2.23;1.17;;;12.50;1.00;;;;;;5057588;28;20194;-84
2022/03/30 13:41:19;;;;;;;2.60;1.30;;;12.40;1.00;;;;;;5059916;28;20204;-83